sensor_id;sensor_type;location;lat;lon;timestamp;pressure;altitude;pressure_sealevel;temperature;humidity
4836;BME280;66719;51.226;6.902;2023-01-28T00:01:20;101997.34;;;2.76;100.00
4836;BME280;66719;51.226;6.902;2023-01-28T00:03:50;101999.06;;;2.75;100.00
4836;BME280;66719;51.226;6.902;2023-01-28T00:06:17;101996.47;;;2.75;100.00
4836;BME280;66719;51.226;6.902;2023-01-28T00:08:44;101992.13;;;2.74;100.00
4836;BME280;66719;51.226;6.902;2023-01-28T00:11:12;101998.13;;;2.73;100.00
4836;BME280;66719;51.226;6.902;2023-01-28T00:13:39;101998.19;;;2.75;100.00
4836;BME280;66719;51.226;6.902;2023-01-28T00:16:07;102002.47;;;2.74;100.00
4836;BME280;66719;51.226;6.902;2023-01-28T00:18:34;101999.94;;;2.76;100.00
4836;BME280;66719;51.226;6.902;2023-01-28T00:21:10;101999.88;;;2.74;100.00
4836;BME280;66719;51.226;6.902;2023-01-28T00:23:39;101997.22;;;2.71;100.00
4836;BME280;66719;51.226;6.902;2023-01-28T00:26:11;101986.75;;;2.68;100.00
4836;BME280;66719;51.226;6.902;2023-01-28T00:28:39;101982.25;;;2.63;100.00
4836;BME280;66719;51.226;6.902;2023-01-28T00:31:12;101981.34;;;2.61;100.00
4836;BME280;66719;51.226;6.902;2023-01-28T00:33:42;101977.94;;;2.62;100.00
4836;BME280;66719;51.226;6.902;2023-01-28T00:36:09;101976.97;;;2.60;100.00
4836;BME280;66719;51.226;6.902;2023-01-28T00:38:36;101980.38;;;2.59;100.00
4836;BME280;66719;51.226;6.902;2023-01-28T00:41:13;101984.63;;;2.57;100.00
4836;BME280;66719;51.226;6.902;2023-01-28T00:43:41;101983.75;;;2.56;100.00
4836;BME280;66719;51.226;6.902;2023-01-28T00:46:09;101981.16;;;2.56;100.00
4836;BME280;66719;51.226;6.902;2023-01-28T00:48:37;101982.13;;;2.60;100.00
4836;BME280;66719;51.226;6.902;2023-01-28T00:51:04;101982.22;;;2.61;100.00
4836;BME280;66719;51.226;6.902;2023-01-28T00:53:30;101992.38;;;2.57;100.00
4836;BME280;66719;51.226;6.902;2023-01-28T00:55:57;101994.09;;;2.56;100.00
4836;BME280;66719;51.226;6.902;2023-01-28T00:58:24;101986.25;;;2.53;100.00
4836;BME280;66719;51.226;6.902;2023-01-28T01:00:51;101984.53;;;2.53;100.00
4836;BME280;66719;51.226;6.902;2023-01-28T01:03:18;101987.81;;;2.49;100.00
4836;BME280;66719;51.226;6.902;2023-01-28T01:05:45;101985.28;;;2.51;100.00
4836;BME280;66719;51.226;6.902;2023-01-28T01:08:12;101989.53;;;2.49;100.00
4836;BME280;66719;51.226;6.902;2023-01-28T01:10:39;101996.34;;;2.47;100.00
4836;BME280;66719;51.226;6.902;2023-01-28T01:13:06;101988.50;;;2.44;100.00
4836;BME280;66719;51.226;6.902;2023-01-28T01:15:33;101992.78;;;2.43;100.00
4836;BME280;66719;51.226;6.902;2023-01-28T01:18:00;102001.28;;;2.41;100.00
4836;BME280;66719;51.226;6.902;2023-01-28T01:20:27;101992.66;;;2.40;100.00
4836;BME280;66719;51.226;6.902;2023-01-28T01:22:55;101996.19;;;2.42;100.00
4836;BME280;66719;51.226;6.902;2023-01-28T01:25:22;101993.50;;;2.39;100.00
4836;BME280;66719;51.226;6.902;2023-01-28T01:27:48;101996.91;;;2.38;100.00
4836;BME280;66719;51.226;6.902;2023-01-28T01:30:15;101998.66;;;2.39;100.00
4836;BME280;66719;51.226;6.902;2023-01-28T01:32:42;102001.25;;;2.39;100.00
4836;BME280;66719;51.226;6.902;2023-01-28T01:35:09;101989.16;;;2.38;100.00
4836;BME280;66719;51.226;6.902;2023-01-28T01:37:36;101994.16;;;2.34;100.00
4836;BME280;66719;51.226;6.902;2023-01-28T01:40:03;101994.00;;;2.29;100.00
4836;BME280;66719;51.226;6.902;2023-01-28T01:42:33;101990.53;;;2.29;100.00
4836;BME280;66719;51.226;6.902;2023-01-28T01:45:01;101986.34;;;2.32;100.00
4836;BME280;66719;51.226;6.902;2023-01-28T01:50:37;102000.75;;;2.25;100.00
4836;BME280;66719;51.226;6.902;2023-01-28T01:53:13;102004.94;;;2.22;100.00
4836;BME280;66719;51.226;6.902;2023-01-28T01:55:46;101998.84;;;2.20;100.00
4836;BME280;66719;51.226;6.902;2023-01-28T01:58:17;101996.25;;;2.20;100.00
4836;BME280;66719;51.226;6.902;2023-01-28T02:00:45;101998.00;;;2.21;100.00
4836;BME280;66719;51.226;6.902;2023-01-28T02:03:12;102004.06;;;2.21;100.00
4836;BME280;66719;51.226;6.902;2023-01-28T02:05:39;102004.06;;;2.21;100.00
4836;BME280;66719;51.226;6.902;2023-01-28T02:08:06;102004.94;;;2.22;100.00
4836;BME280;66719;51.226;6.902;2023-01-28T02:10:51;102007.41;;;2.19;100.00
4836;BME280;66719;51.226;6.902;2023-01-28T02:13:21;102004.09;;;2.23;100.00
4836;BME280;66719;51.226;6.902;2023-01-28T02:15:50;102000.53;;;2.19;100.00
4836;BME280;66719;51.226;6.902;2023-01-28T02:18:16;102007.41;;;2.19;100.00
4836;BME280;66719;51.226;6.902;2023-01-28T02:21:00;102009.00;;;2.15;100.00
4836;BME280;66719;51.226;6.902;2023-01-28T02:29:32;102011.47;;;2.12;100.00
4836;BME280;66719;51.226;6.902;2023-01-28T02:34:39;102021.91;;;2.15;100.00
4836;BME280;66719;51.226;6.902;2023-01-28T02:37:19;102019.22;;;2.12;100.00
4836;BME280;66719;51.226;6.902;2023-01-28T02:39:50;102025.25;;;2.13;100.00
4836;BME280;66719;51.226;6.902;2023-01-28T02:42:36;102032.06;;;2.11;100.00
4836;BME280;66719;51.226;6.902;2023-01-28T02:45:24;102031.31;;;2.13;100.00
4836;BME280;66719;51.226;6.902;2023-01-28T02:48:11;102025.44;;;2.17;100.00
4836;BME280;66719;51.226;6.902;2023-01-28T02:51:00;102031.53;;;2.19;100.00
4836;BME280;66719;51.226;6.902;2023-01-28T02:53:40;102029.84;;;2.20;100.00
4836;BME280;66719;51.226;6.902;2023-01-28T02:59:27;102034.81;;;2.15;100.00
4836;BME280;66719;51.226;6.902;2023-01-28T03:04:46;102035.31;;;2.05;100.00
4836;BME280;66719;51.226;6.902;2023-01-28T03:07:16;102035.34;;;2.07;100.00
4836;BME280;66719;51.226;6.902;2023-01-28T03:09:45;102041.41;;;2.07;100.00
4836;BME280;66719;51.226;6.902;2023-01-28T03:12:24;102038.13;;;2.11;100.00
4836;BME280;66719;51.226;6.902;2023-01-28T03:15:21;102042.47;;;2.12;100.00
4836;BME280;66719;51.226;6.902;2023-01-28T03:21:41;102033.59;;;2.06;100.00
4836;BME280;66719;51.226;6.902;2023-01-28T03:24:32;102033.59;;;2.06;100.00
4836;BME280;66719;51.226;6.902;2023-01-28T03:27:56;102032.72;;;2.05;100.00
4836;BME280;66719;51.226;6.902;2023-01-28T03:31:08;102031.78;;;2.03;100.00
4836;BME280;66719;51.226;6.902;2023-01-28T03:33:52;102033.34;;;1.99;100.00
4836;BME280;66719;51.226;6.902;2023-01-28T03:36:38;102040.19;;;1.97;100.00
4836;BME280;66719;51.226;6.902;2023-01-28T03:39:24;102030.88;;;2.01;100.00
4836;BME280;66719;51.226;6.902;2023-01-28T03:42:05;102030.50;;;1.92;100.00
4836;BME280;66719;51.226;6.902;2023-01-28T03:44:32;102028.81;;;1.92;100.00
4836;BME280;66719;51.226;6.902;2023-01-28T03:47:19;102029.63;;;1.91;100.00
4836;BME280;66719;51.226;6.902;2023-01-28T03:49:49;102027.94;;;1.92;100.00
4836;BME280;66719;51.226;6.902;2023-01-28T03:52:18;102045.22;;;1.94;100.00
4836;BME280;66719;51.226;6.902;2023-01-28T03:54:46;102039.88;;;1.90;100.00
4836;BME280;66719;51.226;6.902;2023-01-28T03:57:14;102038.25;;;1.92;100.00
4836;BME280;66719;51.226;6.902;2023-01-28T03:59:41;102044.16;;;1.89;100.00
4836;BME280;66719;51.226;6.902;2023-01-28T04:02:10;102046.75;;;1.89;100.00
4836;BME280;66719;51.226;6.902;2023-01-28T04:04:40;102054.19;;;1.82;100.00
4836;BME280;66719;51.226;6.902;2023-01-28T04:07:08;102043.88;;;1.82;100.00
4836;BME280;66719;51.226;6.902;2023-01-28T04:09:36;102042.25;;;1.84;100.00
4836;BME280;66719;51.226;6.902;2023-01-28T04:12:03;102048.28;;;1.84;100.00
4836;BME280;66719;51.226;6.902;2023-01-28T04:14:31;102043.81;;;1.80;100.00
4836;BME280;66719;51.226;6.902;2023-01-28T04:16:57;102043.81;;;1.80;100.00
4836;BME280;66719;51.226;6.902;2023-01-28T04:19:25;102050.69;;;1.80;100.00
4836;BME280;66719;51.226;6.902;2023-01-28T04:21:51;102051.25;;;1.73;100.00
4836;BME280;66719;51.226;6.902;2023-01-28T04:24:22;102046.88;;;1.70;100.00
4836;BME280;66719;51.226;6.902;2023-01-28T04:26:49;102054.59;;;1.70;100.00
4836;BME280;66719;51.226;6.902;2023-01-28T04:29:15;102065.00;;;1.72;100.00
4836;BME280;66719;51.226;6.902;2023-01-28T04:31:42;102061.53;;;1.71;100.00
4836;BME280;66719;51.226;6.902;2023-01-28T04:34:08;102058.13;;;1.72;100.00
4836;BME280;66719;51.226;6.902;2023-01-28T04:36:35;102059.19;;;1.77;100.00
4836;BME280;66719;51.226;6.902;2023-01-28T04:39:02;102061.88;;;1.80;100.00
4836;BME280;66719;51.226;6.902;2023-01-28T04:41:28;102061.78;;;1.77;100.00
4836;BME280;66719;51.226;6.902;2023-01-28T04:43:55;102066.94;;;1.77;100.00
4836;BME280;66719;51.226;6.902;2023-01-28T04:46:21;102071.75;;;1.68;100.00
4836;BME280;66719;51.226;6.902;2023-01-28T04:48:48;102075.25;;;1.70;100.00
4836;BME280;66719;51.226;6.902;2023-01-28T04:51:14;102074.38;;;1.69;100.00
4836;BME280;66719;51.226;6.902;2023-01-28T04:53:42;102075.00;;;1.64;100.00
4836;BME280;66719;51.226;6.902;2023-01-28T04:56:08;102073.38;;;1.66;100.00
4836;BME280;66719;51.226;6.902;2023-01-28T04:58:35;102076.97;;;1.69;100.00
4836;BME280;66719;51.226;6.902;2023-01-28T05:01:01;102071.69;;;1.66;100.00
4836;BME280;66719;51.226;6.902;2023-01-28T05:03:28;102070.00;;;1.67;100.00
4836;BME280;66719;51.226;6.902;2023-01-28T05:05:54;102068.34;;;1.69;100.00
4836;BME280;66719;51.226;6.902;2023-01-28T05:08:21;102067.56;;;1.72;100.00
4836;BME280;66719;51.226;6.902;2023-01-28T05:10:47;102067.63;;;1.73;100.00
4836;BME280;66719;51.226;6.902;2023-01-28T05:13:14;102072.94;;;1.76;100.00
4836;BME280;66719;51.226;6.902;2023-01-28T05:15:40;102077.25;;;1.77;100.00
4836;BME280;66719;51.226;6.902;2023-01-28T05:18:07;102071.09;;;1.74;100.00
4836;BME280;66719;51.226;6.902;2023-01-28T05:20:33;102064.16;;;1.73;100.00
4836;BME280;66719;51.226;6.902;2023-01-28T05:23:00;102075.25;;;1.70;100.00
4836;BME280;66719;51.226;6.902;2023-01-28T05:25:26;102073.56;;;1.70;100.00
4836;BME280;66719;51.226;6.902;2023-01-28T05:27:53;102065.03;;;1.73;100.00
4836;BME280;66719;51.226;6.902;2023-01-28T05:30:20;102068.44;;;1.72;100.00
4836;BME280;66719;51.226;6.902;2023-01-28T05:32:46;102065.03;;;1.73;100.00
4836;BME280;66719;51.226;6.902;2023-01-28T05:35:13;102059.00;;;1.73;100.00
4836;BME280;66719;51.226;6.902;2023-01-28T05:37:40;102063.44;;;1.75;100.00
4836;BME280;66719;51.226;6.902;2023-01-28T05:40:07;102066.00;;;1.75;100.00
4836;BME280;66719;51.226;6.902;2023-01-28T05:42:34;102074.56;;;1.74;100.00
4836;BME280;66719;51.226;6.902;2023-01-28T05:45:01;102072.78;;;1.73;100.00
4836;BME280;66719;51.226;6.902;2023-01-28T05:47:27;102077.22;;;1.76;100.00
4836;BME280;66719;51.226;6.902;2023-01-28T05:49:54;102077.00;;;1.71;100.00
4836;BME280;66719;51.226;6.902;2023-01-28T05:52:20;102080.31;;;1.67;100.00
4836;BME280;66719;51.226;6.902;2023-01-28T05:54:46;102090.75;;;1.70;100.00
4836;BME280;66719;51.226;6.902;2023-01-28T05:57:13;102098.59;;;1.73;100.00
4836;BME280;66719;51.226;6.902;2023-01-28T05:59:40;102099.19;;;1.66;100.00
4836;BME280;66719;51.226;6.902;2023-01-28T06:02:06;102095.53;;;1.61;100.00
4836;BME280;66719;51.226;6.902;2023-01-28T06:04:33;102105.66;;;1.56;100.00
4836;BME280;66719;51.226;6.902;2023-01-28T06:06:59;102106.56;;;1.57;100.00
4836;BME280;66719;51.226;6.902;2023-01-28T06:09:26;102103.03;;;1.55;100.00
4836;BME280;66719;51.226;6.902;2023-01-28T06:11:52;102111.53;;;1.52;100.00
4836;BME280;66719;51.226;6.902;2023-01-28T06:14:18;102115.00;;;1.53;100.00
4836;BME280;66719;51.226;6.902;2023-01-28T06:16:45;102114.16;;;1.54;100.00
4836;BME280;66719;51.226;6.902;2023-01-28T06:19:11;102111.66;;;1.55;100.00
4836;BME280;66719;51.226;6.902;2023-01-28T06:21:38;102106.56;;;1.57;100.00
4836;BME280;66719;51.226;6.902;2023-01-28T06:24:04;102113.34;;;1.55;100.00
4836;BME280;66719;51.226;6.902;2023-01-28T06:26:31;102110.91;;;1.58;100.00
4836;BME280;66719;51.226;6.902;2023-01-28T06:28:57;102105.59;;;1.55;100.00
4836;BME280;66719;51.226;6.902;2023-01-28T06:31:24;102109.88;;;1.54;100.00
4836;BME280;66719;51.226;6.902;2023-01-28T06:33:50;102117.69;;;1.56;100.00
4836;BME280;66719;51.226;6.902;2023-01-28T06:36:17;102108.06;;;1.52;100.00
4836;BME280;66719;51.226;6.902;2023-01-28T06:38:43;102109.72;;;1.50;100.00
4836;BME280;66719;51.226;6.902;2023-01-28T06:41:10;102100.38;;;1.53;100.00
4836;BME280;66719;51.226;6.902;2023-01-28T06:43:36;102106.44;;;1.54;100.00
4836;BME280;66719;51.226;6.902;2023-01-28T06:46:03;102111.66;;;1.55;100.00
4836;BME280;66719;51.226;6.902;2023-01-28T06:48:29;102115.03;;;1.54;100.00
4836;BME280;66719;51.226;6.902;2023-01-28T06:50:56;102114.06;;;1.51;100.00
4836;BME280;66719;51.226;6.902;2023-01-28T06:53:22;102119.16;;;1.49;100.00
4836;BME280;66719;51.226;6.902;2023-01-28T06:55:49;102123.28;;;1.46;100.00
4836;BME280;66719;51.226;6.902;2023-01-28T06:58:16;102123.19;;;1.42;100.00
4836;BME280;66719;51.226;6.902;2023-01-28T07:00:42;102121.59;;;1.46;100.00
4836;BME280;66719;51.226;6.902;2023-01-28T07:03:09;102111.16;;;1.43;100.00
4836;BME280;66719;51.226;6.902;2023-01-28T07:05:36;102120.47;;;1.39;100.00
4836;BME280;66719;51.226;6.902;2023-01-28T07:08:02;102122.09;;;1.37;100.00
4836;BME280;66719;51.226;6.902;2023-01-28T07:10:29;102118.84;;;1.41;100.00
4836;BME280;66719;51.226;6.902;2023-01-28T07:12:55;102118.84;;;1.41;100.00
4836;BME280;66719;51.226;6.902;2023-01-28T07:15:22;102112.03;;;1.44;100.00
4836;BME280;66719;51.226;6.902;2023-01-28T07:17:48;102105.94;;;1.41;100.00
4836;BME280;66719;51.226;6.902;2023-01-28T07:20:15;102101.09;;;1.49;100.00
4836;BME280;66719;51.226;6.902;2023-01-28T07:22:43;102107.88;;;1.47;100.00
4836;BME280;66719;51.226;6.902;2023-01-28T07:25:11;102113.03;;;1.47;100.00
4836;BME280;66719;51.226;6.902;2023-01-28T07:27:44;102114.72;;;1.47;100.00
4836;BME280;66719;51.226;6.902;2023-01-28T07:30:11;102126.56;;;1.41;100.00
4836;BME280;66719;51.226;6.902;2023-01-28T07:32:38;102120.34;;;1.36;100.00
4836;BME280;66719;51.226;6.902;2023-01-28T07:35:05;102113.41;;;1.35;100.00
4836;BME280;66719;51.226;6.902;2023-01-28T07:37:31;102117.59;;;1.32;100.00
4836;BME280;66719;51.226;6.902;2023-01-28T07:39:58;102122.91;;;1.36;100.00
4836;BME280;66719;51.226;6.902;2023-01-28T07:42:24;102121.84;;;1.31;100.00
4836;BME280;66719;51.226;6.902;2023-01-28T07:44:51;102117.31;;;1.26;100.00
4836;BME280;66719;51.226;6.902;2023-01-28T07:47:17;102118.75;;;1.19;100.00
4836;BME280;66719;51.226;6.902;2023-01-28T07:49:44;102122.09;;;1.17;100.00
4836;BME280;66719;51.226;6.902;2023-01-28T07:52:11;102129.06;;;1.19;100.00
4836;BME280;66719;51.226;6.902;2023-01-28T07:54:37;102131.91;;;1.25;100.00
4836;BME280;66719;51.226;6.902;2023-01-28T07:57:08;102121.66;;;1.27;100.00
4836;BME280;66719;51.226;6.902;2023-01-28T07:59:37;102119.28;;;1.31;100.00
4836;BME280;66719;51.226;6.902;2023-01-28T08:02:04;102123.47;;;1.29;100.00
4836;BME280;66719;51.226;6.902;2023-01-28T08:04:30;102142.91;;;1.21;100.00
4836;BME280;66719;51.226;6.902;2023-01-28T08:06:57;102132.59;;;1.21;100.00
4836;BME280;66719;51.226;6.902;2023-01-28T08:09:23;102146.56;;;1.26;100.00
4836;BME280;66719;51.226;6.902;2023-01-28T08:11:50;102143.22;;;1.29;100.00
4836;BME280;66719;51.226;6.902;2023-01-28T08:14:16;102141.47;;;1.28;100.00
4836;BME280;66719;51.226;6.902;2023-01-28T08:16:43;102152.94;;;1.34;100.00
4836;BME280;66719;51.226;6.902;2023-01-28T08:19:09;102160.47;;;1.30;100.00
4836;BME280;66719;51.226;6.902;2023-01-28T08:21:36;102170.94;;;1.33;100.00
4836;BME280;66719;51.226;6.902;2023-01-28T08:24:03;102167.41;;;1.31;100.00
4836;BME280;66719;51.226;6.902;2023-01-28T08:26:29;102166.53;;;1.30;100.00
4836;BME280;66719;51.226;6.902;2023-01-28T08:28:56;102171.00;;;1.34;100.00
4836;BME280;66719;51.226;6.902;2023-01-28T08:31:22;102174.50;;;1.36;100.00
4836;BME280;66719;51.226;6.902;2023-01-28T08:33:49;102185.09;;;1.42;100.00
4836;BME280;66719;51.226;6.902;2023-01-28T08:36:15;102183.50;;;1.46;100.00
4836;BME280;66719;51.226;6.902;2023-01-28T08:38:42;102188.69;;;1.46;100.00
4836;BME280;66719;51.226;6.902;2023-01-28T08:41:08;102187.84;;;1.47;100.00
4836;BME280;66719;51.226;6.902;2023-01-28T08:43:35;102189.50;;;1.45;100.00
4836;BME280;66719;51.226;6.902;2023-01-28T08:46:04;102186.03;;;1.45;100.00
4836;BME280;66719;51.226;6.902;2023-01-28T08:48:31;102182.41;;;1.39;100.00
4836;BME280;66719;51.226;6.902;2023-01-28T08:50:58;102183.28;;;1.40;100.00
4836;BME280;66719;51.226;6.902;2023-01-28T08:53:25;102190.81;;;1.35;100.00
4836;BME280;66719;51.226;6.902;2023-01-28T08:55:52;102203.66;;;1.34;100.00
4836;BME280;66719;51.226;6.902;2023-01-28T08:58:19;102198.66;;;1.38;100.00
4836;BME280;66719;51.226;6.902;2023-01-28T09:00:46;102201.88;;;1.33;100.00
4836;BME280;66719;51.226;6.902;2023-01-28T09:03:13;102213.63;;;1.26;100.00
4836;BME280;66719;51.226;6.902;2023-01-28T09:05:39;102213.19;;;1.36;100.00
4836;BME280;66719;51.226;6.902;2023-01-28T09:08:09;102222.16;;;1.45;100.00
4836;BME280;66719;51.226;6.902;2023-01-28T09:10:36;102225.56;;;1.44;100.00
4836;BME280;66719;51.226;6.902;2023-01-28T09:13:09;102225.44;;;1.40;100.00
4836;BME280;66719;51.226;6.902;2023-01-28T09:15:36;102238.50;;;1.45;100.00
4836;BME280;66719;51.226;6.902;2023-01-28T09:18:04;102240.28;;;1.46;100.00
4836;BME280;66719;51.226;6.902;2023-01-28T09:20:30;102238.41;;;1.42;100.00
4836;BME280;66719;51.226;6.902;2023-01-28T09:23:01;102241.78;;;1.41;100.00
4836;BME280;66719;51.226;6.902;2023-01-28T09:25:27;102252.44;;;1.29;100.00
4836;BME280;66719;51.226;6.902;2023-01-28T09:27:54;102247.28;;;1.29;100.00
4836;BME280;66719;51.226;6.902;2023-01-28T09:30:20;102250.06;;;1.34;100.00
4836;BME280;66719;51.226;6.902;2023-01-28T09:32:51;102253.00;;;1.41;100.00
4836;BME280;66719;51.226;6.902;2023-01-28T09:35:18;102244.50;;;1.44;100.00
4836;BME280;66719;51.226;6.902;2023-01-28T09:37:45;102248.16;;;1.49;100.00
4836;BME280;66719;51.226;6.902;2023-01-28T09:40:18;102246.41;;;1.48;100.00
4836;BME280;66719;51.226;6.902;2023-01-28T09:45:25;102250.59;;;1.46;100.00
4836;BME280;66719;51.226;6.902;2023-01-28T09:47:55;102243.56;;;1.42;100.00
4836;BME280;66719;51.226;6.902;2023-01-28T09:50:38;102242.03;;;1.47;100.00
4836;BME280;66719;51.226;6.902;2023-01-28T09:55:38;102262.63;;;1.46;100.00
4836;BME280;66719;51.226;6.902;2023-01-28T09:58:11;102266.00;;;1.45;100.00
4836;BME280;66719;51.226;6.902;2023-01-28T10:04:08;102271.31;;;1.28;100.00
4836;BME280;66719;51.226;6.902;2023-01-28T10:06:47;102261.34;;;1.36;100.00
4836;BME280;66719;51.226;6.902;2023-01-28T10:09:25;102258.16;;;1.41;100.00
4836;BME280;66719;51.226;6.902;2023-01-28T10:12:21;102248.06;;;1.48;100.00
4836;BME280;66719;51.226;6.902;2023-01-28T10:15:15;102255.09;;;1.50;100.00
4836;BME280;66719;51.226;6.902;2023-01-28T10:17:48;102254.94;;;1.47;100.00
4836;BME280;66719;51.226;6.902;2023-01-28T10:20:20;102240.50;;;1.51;100.00
4836;BME280;66719;51.226;6.902;2023-01-28T10:22:57;102244.06;;;1.54;100.00
4836;BME280;66719;51.226;6.902;2023-01-28T10:25:29;102251.16;;;1.58;100.00
4836;BME280;66719;51.226;6.902;2023-01-28T10:28:00;102261.25;;;1.54;100.00
4836;BME280;66719;51.226;6.902;2023-01-28T10:30:30;102257.50;;;1.47;100.00
4836;BME280;66719;51.226;6.902;2023-01-28T10:35:37;102246.81;;;1.57;100.00
4836;BME280;66719;51.226;6.902;2023-01-28T10:38:06;102234.19;;;1.65;100.00
4836;BME280;66719;51.226;6.902;2023-01-28T10:40:34;102249.94;;;1.71;100.00
4836;BME280;66719;51.226;6.902;2023-01-28T10:43:01;102251.59;;;1.69;100.00
4836;BME280;66719;51.226;6.902;2023-01-28T10:45:36;102243.84;;;1.69;100.00
4836;BME280;66719;51.226;6.902;2023-01-28T10:48:25;102237.81;;;1.68;100.00
4836;BME280;66719;51.226;6.902;2023-01-28T10:50:59;102245.88;;;1.76;100.00
4836;BME280;66719;51.226;6.902;2023-01-28T10:53:39;102239.94;;;1.79;100.00
4836;BME280;66719;51.226;6.902;2023-01-28T10:56:09;102236.44;;;1.77;100.00
4836;BME280;66719;51.226;6.902;2023-01-28T10:58:49;102235.94;;;1.85;100.00
4836;BME280;66719;51.226;6.902;2023-01-28T11:01:19;102236.81;;;1.86;100.00
4836;BME280;66719;51.226;6.902;2023-01-28T11:03:57;102255.81;;;1.88;100.00
4836;BME280;66719;51.226;6.902;2023-01-28T11:06:26;102258.47;;;1.89;100.00
4836;BME280;66719;51.226;6.902;2023-01-28T11:08:53;102260.09;;;1.87;100.00
4836;BME280;66719;51.226;6.902;2023-01-28T11:11:24;102254.06;;;1.87;100.00
4836;BME280;66719;51.226;6.902;2023-01-28T11:13:53;102251.16;;;1.79;100.00
4836;BME280;66719;51.226;6.902;2023-01-28T11:16:24;102259.84;;;1.81;100.00
4836;BME280;66719;51.226;6.902;2023-01-28T11:18:53;102272.31;;;1.70;100.00
4836;BME280;66719;51.226;6.902;2023-01-28T11:21:25;102275.97;;;1.76;100.00
4836;BME280;66719;51.226;6.902;2023-01-28T11:23:55;102269.94;;;1.75;100.00
4836;BME280;66719;51.226;6.902;2023-01-28T11:26:36;102268.50;;;1.62;100.00
4836;BME280;66719;51.226;6.902;2023-01-28T11:29:04;102273.59;;;1.61;100.00
4836;BME280;66719;51.226;6.902;2023-01-28T11:31:40;102271.25;;;1.46;100.00
4836;BME280;66719;51.226;6.902;2023-01-28T11:34:14;102267.50;;;1.59;100.00
4836;BME280;66719;51.226;6.902;2023-01-28T11:36:53;102261.03;;;1.68;100.00
4836;BME280;66719;51.226;6.902;2023-01-28T11:39:24;102251.97;;;1.78;100.00
4836;BME280;66719;51.226;6.902;2023-01-28T11:42:02;102261.22;;;1.73;100.00
4836;BME280;66719;51.226;6.902;2023-01-28T11:44:34;102259.59;;;1.75;100.00
4836;BME280;66719;51.226;6.902;2023-01-28T11:56:18;102250.16;;;1.76;100.00
4836;BME280;66719;51.226;6.902;2023-01-28T11:58:36;102254.63;;;1.80;100.00
4836;BME280;66719;51.226;6.902;2023-01-28T12:04:34;102233.63;;;1.72;100.00
4836;BME280;66719;51.226;6.902;2023-01-28T12:09:51;102234.28;;;1.66;100.00
4836;BME280;66719;51.226;6.902;2023-01-28T12:15:08;102245.06;;;1.77;100.00
4836;BME280;66719;51.226;6.902;2023-01-28T12:29:20;102225.84;;;1.70;100.00
4836;BME280;66719;51.226;6.902;2023-01-28T12:32:35;102229.19;;;1.68;100.00
4836;BME280;66719;51.226;6.902;2023-01-28T12:40:56;102207.78;;;1.91;100.00
4836;BME280;66719;51.226;6.902;2023-01-28T12:43:36;102193.56;;;2.01;100.00
4836;BME280;66719;51.226;6.902;2023-01-28T12:52:18;102172.69;;;2.17;100.00
4836;BME280;66719;51.226;6.902;2023-01-28T12:57:28;102172.44;;;1.90;100.00
4836;BME280;66719;51.226;6.902;2023-01-28T13:02:38;102154.81;;;1.80;100.00
4836;BME280;66719;51.226;6.902;2023-01-28T13:05:11;102152.13;;;1.77;100.00
4836;BME280;66719;51.226;6.902;2023-01-28T13:07:50;102131.06;;;1.89;100.00
4836;BME280;66719;51.226;6.902;2023-01-28T13:10:49;102103.81;;;1.95;100.00
4836;BME280;66719;51.226;6.902;2023-01-28T13:13:34;102104.88;;;2.01;100.00
4836;BME280;66719;51.226;6.902;2023-01-28T13:16:03;102101.91;;;2.14;100.00
4836;BME280;66719;51.226;6.902;2023-01-28T13:18:42;102092.72;;;2.20;100.00
4836;BME280;66719;51.226;6.902;2023-01-28T13:24:35;102132.44;;;2.46;100.00
4836;BME280;66719;51.226;6.902;2023-01-28T13:26:56;102141.38;;;2.54;100.00
4836;BME280;66719;51.226;6.902;2023-01-28T13:31:52;102153.34;;;2.30;100.00
4836;BME280;66719;51.226;6.902;2023-01-28T13:34:27;102151.34;;;2.23;100.00
4836;BME280;66719;51.226;6.902;2023-01-28T13:36:56;102165.09;;;2.22;100.00
4836;BME280;66719;51.226;6.902;2023-01-28T13:39:25;102152.91;;;2.18;100.00
4836;BME280;66719;51.226;6.902;2023-01-28T13:41:55;102153.00;;;2.21;100.00
4836;BME280;66719;51.226;6.902;2023-01-28T13:44:34;102155.59;;;2.21;100.00
4836;BME280;66719;51.226;6.902;2023-01-28T13:49:39;102163.44;;;2.24;100.00
4836;BME280;66719;51.226;6.902;2023-01-28T13:54:46;102180.84;;;2.28;100.00
4836;BME280;66719;51.226;6.902;2023-01-28T14:00:12;102177.94;;;2.20;100.00
4836;BME280;66719;51.226;6.902;2023-01-28T14:12:17;102181.03;;;3.78;100.00
4836;BME280;66719;51.226;6.902;2023-01-28T14:16:49;102191.94;;;3.18;100.00
4836;BME280;66719;51.226;6.902;2023-01-28T14:19:25;102186.44;;;3.09;100.00
4836;BME280;66719;51.226;6.902;2023-01-28T14:21:54;102184.19;;;2.94;100.00
4836;BME280;66719;51.226;6.902;2023-01-28T14:24:22;102192.09;;;2.75;100.00
4836;BME280;66719;51.226;6.902;2023-01-28T14:26:59;102188.72;;;2.53;100.00
4836;BME280;66719;51.226;6.902;2023-01-28T14:32:07;102172.72;;;2.19;100.00
4836;BME280;66719;51.226;6.902;2023-01-28T14:34:37;102165.66;;;2.15;100.00
4836;BME280;66719;51.226;6.902;2023-01-28T14:37:06;102156.63;;;2.04;100.00
4836;BME280;66719;51.226;6.902;2023-01-28T14:42:23;102146.00;;;1.96;100.00
4836;BME280;66719;51.226;6.902;2023-01-28T14:56:38;102125.22;;;2.38;100.00
4836;BME280;66719;51.226;6.902;2023-01-28T14:59:16;102125.56;;;2.47;100.00
4836;BME280;66719;51.226;6.902;2023-01-28T15:01:46;102114.25;;;2.43;100.00
4836;BME280;66719;51.226;6.902;2023-01-28T15:04:28;102110.94;;;2.25;100.00
4836;BME280;66719;51.226;6.902;2023-01-28T15:06:55;102121.75;;;2.15;100.00
4836;BME280;66719;51.226;6.902;2023-01-28T15:09:23;102123.22;;;2.08;100.00
4836;BME280;66719;51.226;6.902;2023-01-28T15:11:52;102130.38;;;2.15;100.00
4836;BME280;66719;51.226;6.902;2023-01-28T15:14:30;102145.59;;;2.08;100.00
4836;BME280;66719;51.226;6.902;2023-01-28T15:16:58;102138.59;;;2.05;100.00
4836;BME280;66719;51.226;6.902;2023-01-28T15:19:30;102147.28;;;2.07;100.00